Time;durP1;ratioP1;P1;durP2;ratioP2;P2;SDS_P1;SDS_P2;PMS_P1;PMS_P2;Temp;Humidity;BMP_temperature;BMP_pressure;BME280_temperature;BME280_humidity;BME280_pressure;Samples;Min_cycle;Max_cycle;Signal;HPM_P1;HPM_P2
2022/03/28 00:01:20;;;;;;;;;;;7.90;99.90;;;;;;5093737;28;19916;-44
2022/03/28 00:03:46;;;;;;;;;;;7.90;99.90;;;;;;5093518;28;19915;-46
2022/03/28 00:06:12;;;;;;;;;;;7.90;99.90;;;;;;5093779;28;20278;-45
2022/03/28 00:08:38;;;;;;;;;;;7.90;99.90;;;;;;5093954;28;19908;-45
2022/03/28 00:11:04;;;;;;;;;;;7.90;99.90;;;;;;5093340;28;19908;-45
2022/03/28 00:13:29;;;;;;;;;;;7.90;99.90;;;;;;5093723;28;19915;-44
2022/03/28 00:15:55;;;;;;;;;;;7.90;99.90;;;;;;5093822;28;19908;-45
2022/03/28 00:18:20;;;;;;;;;;;7.90;99.90;;;;;;5093204;28;19975;-45
2022/03/28 00:20:47;;;;;;;;;;;7.90;99.90;;;;;;5093858;28;19923;-45
2022/03/28 00:23:12;;;;;;;;;;;8.00;99.90;;;;;;5093746;28;19915;-45
2022/03/28 00:25:40;;;;;;;;;;;8.00;99.90;;;;;;5093170;28;19998;-46
2022/03/28 00:28:06;;;;;;;;;;;8.00;99.90;;;;;;5093653;28;19961;-44
2022/03/28 00:30:31;;;;;;;;;;;8.00;99.90;;;;;;5093492;28;19912;-45
2022/03/28 00:32:59;;;;;;;;;;;8.00;99.90;;;;;;5092840;28;19920;-45
2022/03/28 00:35:25;;;;;;;;;;;8.00;99.90;;;;;;5093437;28;19912;-47
2022/03/28 00:37:51;;;;;;;;;;;8.00;99.90;;;;;;5093616;28;19912;-45
2022/03/28 00:40:17;;;;;;;;;;;8.00;99.90;;;;;;5092723;28;20053;-46
2022/03/28 00:42:43;;;;;;;;;;;8.00;99.90;;;;;;5093397;28;20342;-45
2022/03/28 00:45:09;;;;;;;;;;;8.00;99.90;;;;;;5093463;28;20354;-45
2022/03/28 00:47:35;;;;;;;;;;;8.00;99.90;;;;;;5092887;28;19908;-46
2022/03/28 00:50:00;;;;;;;;;;;8.00;99.90;;;;;;5093404;28;19913;-46
2022/03/28 00:52:26;;;;;;;;;;;8.00;99.90;;;;;;5093404;28;19908;-45
2022/03/28 00:54:51;;;;;;;;;;;7.90;99.90;;;;;;5094004;28;19912;-45
2022/03/28 00:57:17;;;;;;;;;;;7.90;99.90;;;;;;5097257;28;19908;-44
2022/03/28 00:59:43;;;;;;;;;;;7.90;99.90;;;;;;5097625;28;20005;-45
2022/03/28 01:02:09;;;;;;;;;;;7.90;99.90;;;;;;5096824;28;19916;-44
2022/03/28 01:04:36;;;;;;;;;;;7.90;99.90;;;;;;5097278;28;19912;-44
2022/03/28 01:07:01;;;;;;;;;;;7.90;99.90;;;;;;5096821;28;19912;-45
2022/03/28 01:09:27;;;;;;;;;;;8.00;99.90;;;;;;5097138;28;19919;-45
2022/03/28 01:11:53;;;;;;;;;;;7.90;99.90;;;;;;5097110;28;20256;-44
2022/03/28 01:14:19;;;;;;;;;;;7.90;99.90;;;;;;5096491;28;20363;-45
2022/03/28 01:19:29;;;;;;;;;;;7.90;99.90;;;;;;5097080;28;19962;-45
2022/03/28 01:21:54;;;;;;;;;;;7.90;99.90;;;;;;5096458;28;19916;-46
2022/03/28 01:24:20;;;;;;;;;;;7.90;99.90;;;;;;5096937;28;19935;-44
2022/03/28 01:26:46;;;;;;;;;;;7.90;99.90;;;;;;5096923;28;19911;-45
2022/03/28 01:29:13;;;;;;;;;;;7.90;99.90;;;;;;5096414;28;19947;-44
2022/03/28 01:31:39;;;;;;;;;;;7.90;99.90;;;;;;5096812;28;19914;-45
2022/03/28 01:34:04;;;;;;;;;;;7.90;99.90;;;;;;5096436;28;19926;-44
2022/03/28 01:36:30;;;;;;;;;;;7.90;99.90;;;;;;5096116;28;19916;-45
2022/03/28 01:38:55;;;;;;;;;;;7.90;99.90;;;;;;5096631;28;20301;-45
2022/03/28 01:41:21;;;;;;;;;;;8.00;99.90;;;;;;5096395;28;19959;-45
2022/03/28 01:43:46;;;;;;;;;;;7.90;99.90;;;;;;5096046;28;19908;-45
2022/03/28 01:46:12;;;;;;;;;;;7.90;99.90;;;;;;5096610;28;19908;-44
2022/03/28 01:48:37;;;;;;;;;;;7.90;99.90;;;;;;5096506;28;20295;-45
2022/03/28 01:51:03;;;;;;;;;;;7.90;99.90;;;;;;5095956;28;19908;-46
2022/03/28 01:53:28;;;;;;;;;;;8.00;99.90;;;;;;5096399;28;19915;-45
2022/03/28 01:55:53;;;;;;;;;;;7.90;99.90;;;;;;5096343;28;19909;-44
2022/03/28 01:58:19;;;;;;;;;;;7.90;99.90;;;;;;5095710;28;19998;-46
2022/03/28 02:00:45;;;;;;;;;;;7.90;99.90;;;;;;5096327;28;20009;-45
2022/03/28 02:03:10;;;;;;;;;;;7.90;99.90;;;;;;5095802;28;19912;-49
2022/03/28 02:05:36;;;;;;;;;;;7.90;99.90;;;;;;5095501;28;19936;-45
2022/03/28 02:08:02;;;;;;;;;;;7.90;99.90;;;;;;5096114;28;19908;-44
2022/03/28 02:10:27;;;;;;;;;;;7.90;99.90;;;;;;5095429;28;19977;-44
2022/03/28 02:12:53;;;;;;;;;;;7.90;99.90;;;;;;5096109;28;20386;-44
2022/03/28 02:15:20;;;;;;;;;;;7.90;99.90;;;;;;5096028;28;20411;-47
2022/03/28 02:17:45;;;;;;;;;;;7.90;99.90;;;;;;5095573;28;19961;-46
2022/03/28 02:20:11;;;;;;;;;;;7.80;99.90;;;;;;5095880;28;19908;-45
2022/03/28 02:22:38;;;;;;;;;;;7.90;99.90;;;;;;5095768;28;19955;-45
2022/03/28 02:25:05;;;;;;;;;;;7.80;99.90;;;;;;5095224;28;19915;-44
2022/03/28 02:27:30;;;;;;;;;;;7.80;99.90;;;;;;5095615;28;19912;-44
2022/03/28 02:29:56;;;;;;;;;;;7.80;99.90;;;;;;5095794;28;19916;-44
2022/03/28 02:32:21;;;;;;;;;;;7.70;99.90;;;;;;5094746;28;19912;-44
2022/03/28 02:34:47;;;;;;;;;;;7.70;99.90;;;;;;5095676;28;19908;-44
2022/03/28 02:37:12;;;;;;;;;;;7.80;99.90;;;;;;5095609;28;19998;-45
2022/03/28 02:39:38;;;;;;;;;;;7.80;99.90;;;;;;5094982;28;19920;-45
2022/03/28 02:42:04;;;;;;;;;;;7.80;99.90;;;;;;5095456;28;19923;-45
2022/03/28 02:44:29;;;;;;;;;;;7.80;99.90;;;;;;5095442;28;20286;-44
2022/03/28 02:46:55;;;;;;;;;;;7.80;99.90;;;;;;5094912;28;19935;-44
2022/03/28 02:49:20;;;;;;;;;;;7.80;99.90;;;;;;5095389;28;19912;-44
2022/03/28 02:51:46;;;;;;;;;;;7.80;99.90;;;;;;5095339;28;20006;-45
2022/03/28 02:54:11;;;;;;;;;;;7.80;99.90;;;;;;5094607;28;19969;-44
2022/03/28 02:56:37;;;;;;;;;;;7.70;99.90;;;;;;5095110;28;19908;-44
2022/03/28 02:59:03;;;;;;;;;;;7.70;99.90;;;;;;5095182;28;19915;-44
2022/03/28 03:01:28;;;;;;;;;;;7.70;99.90;;;;;;5094396;28;19916;-45
2022/03/28 03:03:53;;;;;;;;;;;7.70;99.90;;;;;;5095120;28;19915;-44
2022/03/28 03:06:19;;;;;;;;;;;7.70;99.90;;;;;;5094948;28;20359;-44
2022/03/28 03:08:45;;;;;;;;;;;7.70;99.90;;;;;;5094134;28;19912;-45
2022/03/28 03:11:10;;;;;;;;;;;7.60;99.90;;;;;;5094843;28;20382;-44
2022/03/28 03:13:36;;;;;;;;;;;7.70;99.90;;;;;;5094245;28;19912;-45
2022/03/28 03:16:02;;;;;;;;;;;7.60;99.90;;;;;;5094738;28;19951;-45
2022/03/28 03:18:27;;;;;;;;;;;7.70;99.90;;;;;;5093891;28;19908;-44
2022/03/28 03:20:53;;;;;;;;;;;7.70;99.90;;;;;;5094138;28;19926;-44
2022/03/28 03:23:18;;;;;;;;;;;7.70;99.90;;;;;;5094609;28;19912;-45
2022/03/28 03:25:43;;;;;;;;;;;7.70;99.90;;;;;;5094761;28;19946;-46
2022/03/28 03:28:09;;;;;;;;;;;7.70;99.90;;;;;;5094140;28;20362;-45
2022/03/28 03:30:35;;;;;;;;;;;7.80;99.90;;;;;;5094356;28;20351;-44
2022/03/28 03:33:00;;;;;;;;;;;7.70;99.90;;;;;;5094232;28;19924;-45
2022/03/28 03:35:26;;;;;;;;;;;7.80;99.90;;;;;;5093881;28;19958;-45
2022/03/28 03:37:51;;;;;;;;;;;7.70;99.90;;;;;;5094318;28;19908;-44
2022/03/28 03:40:17;;;;;;;;;;;7.70;99.90;;;;;;5094189;28;20452;-44
2022/03/28 03:42:42;;;;;;;;;;;7.70;99.90;;;;;;5093743;28;19918;-44
2022/03/28 03:45:08;;;;;;;;;;;7.70;99.90;;;;;;5094378;28;19954;-44
2022/03/28 03:47:34;;;;;;;;;;;7.70;99.90;;;;;;5094165;28;20416;-45
2022/03/28 03:50:00;;;;;;;;;;;7.70;99.90;;;;;;5093760;28;19908;-45
2022/03/28 03:52:25;;;;;;;;;;;7.70;99.90;;;;;;5094110;28;20412;-45
2022/03/28 03:54:50;;;;;;;;;;;7.70;99.90;;;;;;5094248;28;19908;-45
2022/03/28 03:57:16;;;;;;;;;;;7.70;99.90;;;;;;5093541;28;20255;-45
2022/03/28 03:59:42;;;;;;;;;;;7.70;99.90;;;;;;5094039;28;19908;-44
2022/03/28 04:02:08;;;;;;;;;;;7.80;99.90;;;;;;5093874;28;19916;-44
2022/03/28 04:04:34;;;;;;;;;;;7.70;99.90;;;;;;5093345;28;20015;-45
2022/03/28 04:07:00;;;;;;;;;;;7.70;99.90;;;;;;5093903;28;19966;-44
2022/03/28 04:09:25;;;;;;;;;;;7.60;99.90;;;;;;5093771;28;19908;-44
2022/03/28 04:11:50;;;;;;;;;;;7.60;99.90;;;;;;5093490;28;19959;-45
2022/03/28 04:14:16;;;;;;;;;;;7.60;99.90;;;;;;5093912;28;20354;-44
2022/03/28 04:16:42;;;;;;;;;;;7.60;99.90;;;;;;5093777;28;20354;-45
2022/03/28 04:19:08;;;;;;;;;;;7.60;99.90;;;;;;5093345;28;19908;-44
2022/03/28 04:21:34;;;;;;;;;;;7.60;99.90;;;;;;5093430;28;19920;-44
2022/03/28 04:23:59;;;;;;;;;;;7.60;99.90;;;;;;5093307;28;19908;-44
2022/03/28 04:26:25;;;;;;;;;;;7.60;99.90;;;;;;5093622;28;19909;-45
2022/03/28 04:28:50;;;;;;;;;;;7.50;99.90;;;;;;5093437;28;19912;-46
2022/03/28 04:31:16;;;;;;;;;;;7.50;99.90;;;;;;5093077;28;19915;-44
2022/03/28 04:33:41;;;;;;;;;;;7.50;99.90;;;;;;5093339;28;19927;-44
2022/03/28 04:36:07;;;;;;;;;;;7.50;99.90;;;;;;5093386;28;19943;-44
2022/03/28 04:38:32;;;;;;;;;;;7.50;99.90;;;;;;5092897;28;19908;-45
2022/03/28 04:40:58;;;;;;;;;;;7.60;99.90;;;;;;5093637;28;19912;-45
2022/03/28 04:43:23;;;;;;;;;;;7.50;99.90;;;;;;5093327;28;20347;-44
2022/03/28 04:45:49;;;;;;;;;;;7.50;99.90;;;;;;5093054;28;20339;-45
2022/03/28 04:48:14;;;;;;;;;;;7.60;99.90;;;;;;5093554;28;20275;-45
2022/03/28 04:50:40;;;;;;;;;;;7.50;99.90;;;;;;5093349;28;19912;-44
2022/03/28 04:53:05;;;;;;;;;;;7.40;99.90;;;;;;5093029;28;19912;-45
2022/03/28 04:55:31;;;;;;;;;;;7.40;99.90;;;;;;5093350;28;19970;-45
2022/03/28 04:57:57;;;;;;;;;;;7.40;99.90;;;;;;5093527;28;19909;-44
2022/03/28 05:00:22;;;;;;;;;;;7.40;99.90;;;;;;5092699;28;20255;-45
2022/03/28 05:02:48;;;;;;;;;;;7.40;99.90;;;;;;5093363;28;19918;-44
2022/03/28 05:05:14;;;;;;;;;;;7.40;99.90;;;;;;5093242;28;19908;-44
2022/03/28 05:07:40;;;;;;;;;;;7.40;99.90;;;;;;5092805;28;19942;-44
2022/03/28 05:10:06;;;;;;;;;;;7.40;99.90;;;;;;5093303;28;19974;-44
2022/03/28 05:12:31;;;;;;;;;;;7.40;99.90;;;;;;5093095;28;19912;-45
2022/03/28 05:14:57;;;;;;;;;;;7.40;99.90;;;;;;5092829;28;20002;-44
2022/03/28 05:17:23;;;;;;;;;;;7.40;99.90;;;;;;5093121;28;19916;-44
2022/03/28 05:19:49;;;;;;;;;;;7.40;99.90;;;;;;5093144;28;20007;-44
2022/03/28 05:22:14;;;;;;;;;;;7.40;99.90;;;;;;5092550;28;20007;-45
2022/03/28 05:24:40;;;;;;;;;;;7.40;99.90;;;;;;5093162;28;19908;-44
2022/03/28 05:27:05;;;;;;;;;;;7.40;99.90;;;;;;5093149;28;20387;-47
2022/03/28 05:29:31;;;;;;;;;;;7.40;99.90;;;;;;5092521;28;19934;-45
2022/03/28 05:31:56;;;;;;;;;;;7.40;99.90;;;;;;5093151;28;20259;-44
2022/03/28 05:34:22;;;;;;;;;;;7.30;99.90;;;;;;5092095;28;19920;-44
2022/03/28 05:36:47;;;;;;;;;;;7.40;99.90;;;;;;5093114;28;19908;-44
2022/03/28 05:39:13;;;;;;;;;;;7.40;99.90;;;;;;5092940;28;19939;-45
2022/03/28 05:41:38;;;;;;;;;;;7.30;99.90;;;;;;5076212;28;19923;-44
2022/03/28 05:44:04;;;;;;;;;;;7.30;99.90;;;;;;5096711;28;19908;-44
2022/03/28 05:46:29;;;;;;;;;;;7.30;99.90;;;;;;5096559;28;19908;-45
2022/03/28 05:48:55;;;;;;;;;;;7.30;99.90;;;;;;5095959;28;20007;-44
2022/03/28 05:51:21;;;;;;;;;;;7.30;99.90;;;;;;5096353;28;19955;-44
2022/03/28 05:53:46;;;;;;;;;;;7.30;99.90;;;;;;5096401;28;19915;-44
2022/03/28 05:56:12;;;;;;;;;;;7.40;99.90;;;;;;5095959;28;19908;-45
2022/03/28 05:58:37;;;;;;;;;;;7.40;99.90;;;;;;5096415;28;20359;-44
2022/03/28 06:01:03;;;;;;;;;;;7.40;99.90;;;;;;5096314;28;20396;-46
2022/03/28 06:03:28;;;;;;;;;;;7.40;99.90;;;;;;5095648;28;20476;-44
2022/03/28 06:05:54;;;;;;;;;;;7.40;99.90;;;;;;5096170;28;19908;-45
2022/03/28 06:08:19;;;;;;;;;;;7.40;99.90;;;;;;5096040;28;19914;-45
2022/03/28 06:10:45;;;;;;;;;;;7.40;99.90;;;;;;5095708;28;19912;-45
2022/03/28 06:13:12;;;;;;;;;;;7.30;99.90;;;;;;5096016;28;20382;-44
2022/03/28 06:15:37;;;;;;;;;;;7.30;99.90;;;;;;5095951;28;20383;-44
2022/03/28 06:18:04;;;;;;;;;;;7.30;99.90;;;;;;5095385;28;20467;-46
2022/03/28 06:20:29;;;;;;;;;;;7.20;99.90;;;;;;5095792;28;19912;-45
2022/03/28 06:22:55;;;;;;;;;;;7.20;99.90;;;;;;5095984;28;20049;-44
2022/03/28 06:25:20;;;;;;;;;;;7.30;99.90;;;;;;5095298;28;19977;-44
2022/03/28 06:27:46;;;;;;;;;;;7.30;99.90;;;;;;5095949;28;20263;-44
2022/03/28 06:30:11;;;;;;;;;;;7.30;99.90;;;;;;5095793;28;20291;-45
2022/03/28 06:32:40;;;;;;;;;;;7.30;99.90;;;;;;5094866;28;20401;-45
2022/03/28 06:35:08;;;;;;;;;;;7.20;99.90;;;;;;5094783;28;22475;-45
2022/03/28 06:37:34;;;;;;;;;;;7.20;99.90;;;;;;5094983;28;19912;-45
2022/03/28 06:40:00;;;;;;;;;;;7.20;99.90;;;;;;5095561;28;19908;-44
2022/03/28 06:42:26;;;;;;;;;;;7.20;99.90;;;;;;5095274;28;19916;-45
2022/03/28 06:44:51;;;;;;;;;;;7.20;99.90;;;;;;5094967;28;19962;-44
2022/03/28 06:47:17;;;;;;;;;;;7.30;99.90;;;;;;5095333;28;19908;-45
2022/03/28 06:49:43;;;;;;;;;;;7.30;99.90;;;;;;5095389;28;19912;-44
2022/03/28 06:52:09;;;;;;;;;;;7.20;99.90;;;;;;5094770;28;19908;-44
2022/03/28 06:54:35;;;;;;;;;;;7.30;99.90;;;;;;5095289;28;19967;-44
2022/03/28 06:57:02;;;;;;;;;;;7.30;99.90;;;;;;5095158;28;19944;-44
2022/03/28 06:59:28;;;;;;;;;;;7.30;99.90;;;;;;5094582;28;19928;-46
2022/03/28 07:01:54;;;;;;;;;;;7.30;99.90;;;;;;5094976;28;20385;-44
2022/03/28 07:04:21;;;;;;;;;;;7.30;99.90;;;;;;5095020;28;19908;-44
2022/03/28 07:06:47;;;;;;;;;;;7.30;99.90;;;;;;5094497;28;20401;-44
2022/03/28 07:09:13;;;;;;;;;;;7.30;99.90;;;;;;5094882;28;19908;-44
2022/03/28 07:11:38;;;;;;;;;;;7.40;99.90;;;;;;5094891;28;20037;-44
2022/03/28 07:14:04;;;;;;;;;;;7.40;99.90;;;;;;5094304;28;19909;-45
2022/03/28 07:16:29;;;;;;;;;;;7.40;99.90;;;;;;5094752;28;19908;-44
2022/03/28 07:18:55;;;;;;;;;;;7.50;99.90;;;;;;5094798;28;20343;-44
2022/03/28 07:21:20;;;;;;;;;;;7.50;99.90;;;;;;5094075;28;20477;-44
2022/03/28 07:23:48;;;;;;;;;;;7.50;99.90;;;;;;5094848;28;20315;-46
2022/03/28 07:26:14;;;;;;;;;;;7.50;99.90;;;;;;5094651;28;19909;-44
2022/03/28 07:28:39;;;;;;;;;;;7.60;99.90;;;;;;5094136;28;19912;-44
2022/03/28 07:31:08;;;;;;;;;;;7.60;99.90;;;;;;5094392;28;19908;-44
2022/03/28 07:33:36;;;;;;;;;;;7.60;99.90;;;;;;5094127;28;19962;-44
2022/03/28 07:36:01;;;;;;;;;;;7.60;99.90;;;;;;5093947;28;20355;-44
2022/03/28 07:38:26;;;;;;;;;;;7.60;99.90;;;;;;5094382;28;19930;-44
2022/03/28 07:40:52;;;;;;;;;;;7.60;99.90;;;;;;5093726;28;19916;-44
2022/03/28 07:43:17;;;;;;;;;;;7.60;99.90;;;;;;5094281;28;19908;-44
2022/03/28 07:45:43;;;;;;;;;;;7.70;99.90;;;;;;5094179;28;19908;-44
2022/03/28 07:48:08;;;;;;;;;;;7.70;99.90;;;;;;5093792;28;19912;-44
2022/03/28 07:50:34;;;;;;;;;;;7.80;99.90;;;;;;5094163;28;19956;-44
2022/03/28 07:53:00;;;;;;;;;;;7.80;99.90;;;;;;5094272;28;20275;-45
2022/03/28 07:55:27;;;;;;;;;;;7.90;99.90;;;;;;5093579;28;20057;-44
2022/03/28 07:57:53;;;;;;;;;;;7.90;99.90;;;;;;5094205;28;20461;-44
2022/03/28 08:00:19;;;;;;;;;;;8.00;99.90;;;;;;5093939;28;19947;-45
2022/03/28 08:02:44;;;;;;;;;;;8.00;99.90;;;;;;5093506;28;20022;-45
2022/03/28 08:05:10;;;;;;;;;;;8.00;99.90;;;;;;5093547;28;20041;-45
2022/03/28 08:07:36;;;;;;;;;;;8.00;99.90;;;;;;5094021;28;20388;-44
2022/03/28 08:10:02;;;;;;;;;;;8.10;99.90;;;;;;5093436;28;19997;-45
2022/03/28 08:12:28;;;;;;;;;;;8.10;99.90;;;;;;5093779;28;20481;-44
2022/03/28 08:14:54;;;;;;;;;;;8.10;99.90;;;;;;5093838;28;19955;-44
2022/03/28 08:17:20;;;;;;;;;;;8.10;99.90;;;;;;5093203;28;20297;-44
2022/03/28 08:19:46;;;;;;;;;;;8.10;99.90;;;;;;5093819;28;19939;-45
2022/03/28 08:22:12;;;;;;;;;;;8.10;99.90;;;;;;5093640;28;20291;-44
2022/03/28 08:24:37;;;;;;;;;;;8.10;99.90;;;;;;5093429;28;19908;-45
2022/03/28 08:27:03;;;;;;;;;;;8.20;99.90;;;;;;5093742;28;20374;-45
2022/03/28 08:29:28;;;;;;;;;;;8.20;99.90;;;;;;5093488;28;19908;-45
2022/03/28 08:31:54;;;;;;;;;;;8.20;99.90;;;;;;5093247;28;19915;-44
2022/03/28 08:34:19;;;;;;;;;;;8.30;99.90;;;;;;5093356;28;20014;-44
2022/03/28 08:36:45;;;;;;;;;;;8.40;99.90;;;;;;5093570;28;19936;-45
2022/03/28 08:39:10;;;;;;;;;;;8.50;99.90;;;;;;5092993;28;19908;-45
2022/03/28 08:41:36;;;;;;;;;;;8.40;99.90;;;;;;5093355;28;19990;-44
2022/03/28 08:44:02;;;;;;;;;;;8.40;99.90;;;;;;5093347;28;19908;-45
2022/03/28 08:46:29;;;;;;;;;;;8.40;99.90;;;;;;5093032;28;19999;-44
2022/03/28 08:48:55;;;;;;;;;;;8.50;99.90;;;;;;5093533;28;19943;-44
2022/03/28 08:51:21;;;;;;;;;;;8.50;99.90;;;;;;5092867;28;20541;-44
2022/03/28 08:53:47;;;;;;;;;;;8.50;99.90;;;;;;5093567;28;20018;-44
2022/03/28 08:56:12;;;;;;;;;;;8.50;99.90;;;;;;5093509;28;20041;-45
2022/03/28 08:58:38;;;;;;;;;;;8.50;99.90;;;;;;5092815;28;19916;-45
2022/03/28 09:01:04;;;;;;;;;;;8.50;99.90;;;;;;5093314;28;19923;-44
2022/03/28 09:03:37;;;;;;;;;;;8.60;99.90;;;;;;5093250;28;19968;-44
2022/03/28 09:06:22;;;;;;;;;;;8.60;99.90;;;;;;5092710;28;19987;-44
2022/03/28 09:08:47;;;;;;;;;;;8.60;99.90;;;;;;5093094;28;19908;-44
2022/03/28 09:11:20;;;;;;;;;;;8.60;99.90;;;;;;5093128;28;20363;-46
2022/03/28 09:13:45;;;;;;;;;;;8.60;99.90;;;;;;5092703;28;19909;-44
2022/03/28 09:16:17;;;;;;;;;;;8.60;99.90;;;;;;5094674;28;19912;-45
2022/03/28 09:18:43;;;;;;;;;;;8.70;99.90;;;;;;5097167;28;19915;-44
2022/03/28 09:21:11;;;;;;;;;;;8.70;99.90;;;;;;5096571;28;19985;-45
2022/03/28 09:23:37;;;;;;;;;;;8.70;99.90;;;;;;5096881;28;20019;-44
2022/03/28 09:26:12;;;;;;;;;;;8.70;99.90;;;;;;5097114;28;19962;-45
2022/03/28 09:28:37;;;;;;;;;;;8.80;99.90;;;;;;5096256;28;19962;-44
2022/03/28 09:31:18;;;;;;;;;;;8.70;99.90;;;;;;5096940;28;19908;-44
2022/03/28 09:34:10;;;;;;;;;;;8.80;99.90;;;;;;5096112;28;19920;-44
2022/03/28 09:36:38;;;;;;;;;;;8.80;99.90;;;;;;5092592;28;19908;-44
2022/03/28 09:39:05;;;;;;;;;;;8.90;99.90;;;;;;5096875;28;19915;-44
2022/03/28 09:41:30;;;;;;;;;;;8.90;99.90;;;;;;5096049;28;19916;-44
2022/03/28 09:43:56;;;;;;;;;;;9.00;99.90;;;;;;5096692;28;19908;-44
2022/03/28 09:46:26;;;;;;;;;;;9.00;99.90;;;;;;5078376;28;19919;-45
2022/03/28 09:48:51;;;;;;;;;;;9.10;99.90;;;;;;5096005;28;19912;-45
2022/03/28 09:51:18;;;;;;;;;;;9.10;99.90;;;;;;5096496;28;20003;-45
2022/03/28 09:53:44;;;;;;;;;;;9.10;99.90;;;;;;5096548;28;19908;-45
2022/03/28 09:56:10;;;;;;;;;;;9.20;99.90;;;;;;5096061;28;19908;-44
2022/03/28 09:58:56;;;;;;;;;;;9.20;99.90;;;;;;5096370;28;19915;-45
2022/03/28 10:01:24;;;;;;;;;;;9.30;99.90;;;;;;5096155;28;20449;-44
2022/03/28 10:03:54;;;;;;;;;;;9.40;99.90;;;;;;5096108;28;19968;-45
2022/03/28 10:06:20;;;;;;;;;;;9.40;99.90;;;;;;5096234;28;19908;-44
2022/03/28 10:08:46;;;;;;;;;;;9.40;99.90;;;;;;5095779;28;19969;-44
2022/03/28 10:11:12;;;;;;;;;;;9.50;99.90;;;;;;5096189;28;19912;-45
2022/03/28 10:13:38;;;;;;;;;;;9.60;99.90;;;;;;5095890;28;19912;-45
2022/03/28 10:16:04;;;;;;;;;;;9.60;99.90;;;;;;5095544;28;19912;-44
2022/03/28 10:18:31;;;;;;;;;;;9.70;99.90;;;;;;5095901;28;19939;-44
2022/03/28 10:20:58;;;;;;;;;;;9.80;99.90;;;;;;5095773;28;20290;-44
2022/03/28 10:23:27;;;;;;;;;;;9.80;99.90;;;;;;5095392;28;20049;-45
2022/03/28 10:25:54;;;;;;;;;;;9.80;99.90;;;;;;5095927;28;19909;-44
2022/03/28 10:28:20;;;;;;;;;;;9.80;99.90;;;;;;5095399;28;19994;-44
2022/03/28 10:30:46;;;;;;;;;;;9.90;99.90;;;;;;5095191;28;20000;-45
2022/03/28 10:33:16;;;;;;;;;;;10.00;99.90;;;;;;5095459;28;19924;-44
2022/03/28 10:35:58;;;;;;;;;;;10.00;99.90;;;;;;5095676;28;19918;-45
2022/03/28 10:38:24;;;;;;;;;;;10.00;99.90;;;;;;5094857;28;19908;-44
2022/03/28 10:40:53;;;;;;;;;;;10.00;99.90;;;;;;5095277;28;20018;-44
2022/03/28 10:43:18;;;;;;;;;;;10.10;99.90;;;;;;5095432;28;19915;-45
2022/03/28 10:45:47;;;;;;;;;;;10.10;99.90;;;;;;5094970;28;19923;-44
2022/03/28 10:48:13;;;;;;;;;;;10.20;99.90;;;;;;5095410;28;20367;-44
2022/03/28 10:50:45;;;;;;;;;;;10.20;99.90;;;;;;5095059;28;20015;-46
2022/03/28 10:53:11;;;;;;;;;;;10.30;99.90;;;;;;5095318;28;19908;-44
2022/03/28 10:55:37;;;;;;;;;;;10.30;99.90;;;;;;5095242;28;19918;-45
2022/03/28 10:58:04;;;;;;;;;;;10.20;99.90;;;;;;5094823;28;19918;-45
2022/03/28 11:00:30;;;;;;;;;;;10.20;99.90;;;;;;5095128;28;19962;-44
2022/03/28 11:03:00;;;;;;;;;;;10.20;99.90;;;;;;5095165;28;19916;-44
2022/03/28 11:05:26;;;;;;;;;;;10.30;99.90;;;;;;5094640;28;19947;-44
2022/03/28 11:08:01;;;;;;;;;;;10.50;99.90;;;;;;5095046;28;19915;-45
2022/03/28 11:10:26;;;;;;;;;;;10.50;99.90;;;;;;5095020;28;19930;-44
2022/03/28 11:13:12;;;;;;;;;;;10.70;99.90;;;;;;5094545;28;20364;-46
2022/03/28 11:15:37;;;;;;;;;;;10.70;99.90;;;;;;5094737;28;19990;-44
2022/03/28 11:18:03;;;;;;;;;;;10.90;99.90;;;;;;5094910;28;19951;-45
2022/03/28 11:20:45;;;;;;;;;;;11.00;99.90;;;;;;5094137;28;19940;-44
2022/03/28 11:23:15;;;;;;;;;;;11.10;99.90;;;;;;5094651;28;20351;-44
2022/03/28 11:25:46;;;;;;;;;;;11.30;99.90;;;;;;5094690;28;19962;-44
2022/03/28 11:28:11;;;;;;;;;;;11.40;99.90;;;;;;5094137;28;20354;-44
2022/03/28 11:30:46;;;;;;;;;;;11.50;99.90;;;;;;5094360;28;19908;-47
2022/03/28 11:33:14;;;;;;;;;;;11.70;99.90;;;;;;5093812;28;20433;-45
2022/03/28 11:35:49;;;;;;;;;;;11.70;99.90;;;;;;5094506;28;19908;-45
2022/03/28 11:38:18;;;;;;;;;;;11.70;99.90;;;;;;5093835;28;20271;-45
2022/03/28 11:40:43;;;;;;;;;;;11.80;99.90;;;;;;5093784;28;19908;-45
2022/03/28 11:43:09;;;;;;;;;;;11.90;99.90;;;;;;5094387;28;20385;-45
2022/03/28 11:45:35;;;;;;;;;;;12.00;99.90;;;;;;5094256;28;20224;-45
2022/03/28 11:48:02;;;;;;;;;;;12.00;99.90;;;;;;5093676;28;19998;-44
2022/03/28 11:50:31;;;;;;;;;;;12.00;99.90;;;;;;5094225;28;19912;-45
2022/03/28 11:52:57;;;;;;;;;;;11.90;99.90;;;;;;5094257;28;19908;-45
2022/03/28 11:55:25;;;;;;;;;;;12.00;99.90;;;;;;5093525;28;20319;-45
2022/03/28 12:00:39;;;;;;;;;;;12.20;99.90;;;;;;5094095;28;19915;-45
2022/03/28 12:03:04;;;;;;;;;;;12.20;99.90;;;;;;5093616;28;19913;-45
2022/03/28 12:05:30;;;;;;;;;;;12.20;99.90;;;;;;5093990;28;19908;-45
2022/03/28 12:07:56;;;;;;;;;;;12.20;99.90;;;;;;5094101;28;20380;-45
2022/03/28 12:10:28;;;;;;;;;;;12.30;99.90;;;;;;5093321;28;19975;-44
2022/03/28 12:12:55;;;;;;;;;;;12.50;99.90;;;;;;5093966;28;19908;-44
2022/03/28 12:15:24;;;;;;;;;;;12.30;99.90;;;;;;5093329;28;19908;-45
2022/03/28 12:17:53;;;;;;;;;;;12.30;99.90;;;;;;5093866;28;19915;-45
2022/03/28 12:20:21;;;;;;;;;;;12.30;99.90;;;;;;5093667;28;19908;-45
2022/03/28 12:22:47;;;;;;;;;;;12.30;99.90;;;;;;5093051;28;20015;-44
2022/03/28 12:25:23;;;;;;;;;;;12.40;99.90;;;;;;5093764;28;19915;-46
2022/03/28 12:27:53;;;;;;;;;;;12.60;99.90;;;;;;5093669;28;19908;-45
2022/03/28 12:30:22;;;;;;;;;;;12.80;99.90;;;;;;5093158;28;19915;-45
2022/03/28 12:32:48;;;;;;;;;;;13.00;99.90;;;;;;5093375;28;19923;-45
2022/03/28 12:35:13;;;;;;;;;;;13.20;99.90;;;;;;5093648;28;20267;-45
2022/03/28 12:37:39;;;;;;;;;;;13.40;99.90;;;;;;5092864;28;19935;-45
2022/03/28 12:40:05;;;;;;;;;;;13.50;99.90;;;;;;5093667;28;19908;-45
2022/03/28 12:42:31;;;;;;;;;;;13.80;99.90;;;;;;5093274;28;20394;-45
2022/03/28 12:44:57;;;;;;;;;;;13.90;99.90;;;;;;5093058;28;20267;-45
2022/03/28 12:47:25;;;;;;;;;;;14.00;99.90;;;;;;5093484;28;20370;-44
2022/03/28 12:49:52;;;;;;;;;;;14.00;99.90;;;;;;5094358;28;20306;-45
2022/03/28 12:52:24;;;;;;;;;;;14.30;99.90;;;;;;5097159;28;20007;-44
2022/03/28 12:54:56;;;;;;;;;;;14.00;99.90;;;;;;5097781;28;19908;-45
2022/03/28 12:57:30;;;;;;;;;;;14.00;99.90;;;;;;5097037;28;19947;-44
2022/03/28 12:59:55;;;;;;;;;;;13.90;99.90;;;;;;5097592;28;20361;-45
2022/03/28 13:02:21;;;;;;;;;;;14.10;99.90;;;;;;5097312;28;19969;-45
2022/03/28 13:04:50;;;;;;;;;;;14.30;99.90;;;;;;5097107;28;19912;-45
2022/03/28 13:07:17;;;;;;;;;;;14.50;99.90;;;;;;5097358;28;19961;-47
2022/03/28 13:09:52;;;;;;;;;;;14.80;99.90;;;;;;5097312;28;19912;-46
2022/03/28 13:12:18;;;;;;;;;;;14.90;99.90;;;;;;5096761;28;19909;-46
2022/03/28 13:14:52;;;;;;;;;;;15.30;99.90;;;;;;5097099;28;19909;-46
2022/03/28 13:17:19;;;;;;;;;;;15.30;99.90;;;;;;5097221;28;19908;-48
2022/03/28 13:19:58;;;;;;;;;;;15.40;99.90;;;;;;5096704;28;19961;-45
2022/03/28 13:22:27;;;;;;;;;;;15.50;99.30;;;;;;5096959;28;19916;-45
2022/03/28 13:25:05;;;;;;;;;;;15.70;99.90;;;;;;5097115;28;19957;-44
2022/03/28 13:30:18;;;;;;;;;;;16.00;99.90;;;;;;5097040;28;19915;-45
2022/03/28 13:32:44;;;;;;;;;;;16.20;99.90;;;;;;5096044;28;19964;-46
2022/03/28 13:35:10;;;;;;;;;;;16.30;96.90;;;;;;5096888;28;19943;-47
2022/03/28 13:37:35;;;;;;;;;;;16.60;90.20;;;;;;5096785;28;19908;-45
2022/03/28 13:40:01;;;;;;;;;;;16.80;95.90;;;;;;5096239;28;20409;-45
2022/03/28 13:42:26;;;;;;;;;;;17.00;94.10;;;;;;5096496;28;19939;-44
2022/03/28 13:44:52;;;;;;;;;;;17.10;95.40;;;;;;5096744;28;19961;-44
2022/03/28 13:47:17;;;;;;;;;;;17.20;97.10;;;;;;5096081;28;20262;-46
2022/03/28 13:49:42;;;;;;;;;;;17.30;95.60;;;;;;5096514;28;20541;-45
2022/03/28 13:52:08;;;;;;;;;;;17.20;96.60;;;;;;5096563;28;19994;-45
2022/03/28 13:54:34;;;;;;;;;;;17.10;91.80;;;;;;5095848;28;19915;-44
2022/03/28 13:56:59;;;;;;;;;;;17.20;96.20;;;;;;5096510;28;19909;-48
2022/03/28 13:59:24;;;;;;;;;;;17.20;97.50;;;;;;5096328;28;19915;-45
2022/03/28 14:01:50;;;;;;;;;;;17.20;95.40;;;;;;5095007;28;19916;-44
2022/03/28 14:04:16;;;;;;;;;;;17.20;90.70;;;;;;5078055;28;19908;-46
2022/03/28 14:06:41;;;;;;;;;;;17.10;78.70;;;;;;5096232;28;19908;-45
2022/03/28 14:09:08;;;;;;;;;;;17.10;90.10;;;;;;5095595;28;19908;-45
2022/03/28 14:11:35;;;;;;;;;;;17.20;98.10;;;;;;5096067;28;19912;-45
2022/03/28 14:14:00;;;;;;;;;;;17.30;94.00;;;;;;5096147;28;19969;-45
2022/03/28 14:16:26;;;;;;;;;;;17.20;95.60;;;;;;5095533;28;20328;-45
2022/03/28 14:18:54;;;;;;;;;;;17.20;97.70;;;;;;5096128;28;19959;-44
2022/03/28 14:21:20;;;;;;;;;;;17.30;95.60;;;;;;5095883;28;19912;-44
2022/03/28 14:23:45;;;;;;;;;;;17.50;94.40;;;;;;5095309;28;20270;-45
2022/03/28 14:26:13;;;;;;;;;;;17.60;92.20;;;;;;5096004;28;19915;-46
2022/03/28 14:28:39;;;;;;;;;;;17.60;95.70;;;;;;5095741;28;19968;-45
2022/03/28 14:31:04;;;;;;;;;;;17.70;94.90;;;;;;5095180;28;19999;-45